Погода Тламаказапана 2 недели

Герреро, Мексика

23 февраля-06 марта
  • 23февраля
    Сегодня
    +12°
    +28°
    Ясно и безоблачно
    ВремяПогодаТемператураВлажностьДавлениеВетер, м/сВероятность осадков
    00:00Ясно и безоблачно+19°C39 %605 мм1.6 м/с1 %
    03:00Ясно и безоблачно+17°C39 %604 мм1.2 м/с1 %
    06:00Ясно и безоблачно+18°C35 %605 мм0.7 м/с1 %
    09:00Ясно и безоблачно+17°C37 %606 мм0.5 м/с1 %
    12:00Ясно и безоблачно+24°C25 %608 мм0.8 м/с1 %
    15:00Ясно и безоблачно+28°C19 %607 мм2.5 м/с1 %
    18:00Практически безоблачно+26°C20 %606 мм2.0 м/с1 %
    21:00Ясно и безоблачно+19°C31 %604 мм1.0 м/с1 %
  • 24февраля
    Суббота
    +11°
    +28°
    Ясно и безоблачно
    ВремяПогодаТемператураВлажностьДавлениеВетер, м/сВероятность осадков
    00:00Ясно и безоблачно+18°C50 %605 мм2.1 м/с1 %
    03:00Ясно и безоблачно+15°C56 %604 мм0.9 м/с1 %
    06:00Ясно и безоблачно+13°C55 %604 мм1.7 м/с1 %
    09:00Ясно и безоблачно+17°C37 %608 мм1.1 м/с1 %
    12:00Ясно и безоблачно+24°C29 %610 мм0.7 м/с1 %
    15:00Ясно и безоблачно+28°C21 %609 мм1.3 м/с1 %
    18:00Ясно и безоблачно+25°C37 %607 мм0.8 м/с1 %
    21:00Ясно и безоблачно+19°C39 %606 мм0.9 м/с1 %
  • 25февраля
    Воскресенье
    +15°
    +28°
    Практически безоблачно
    ВремяПогодаТемператураВлажностьДавлениеВетер, м/сВероятность осадков
    00:00Ясно и безоблачно+22°C36 %609 мм1.2 м/с1 %
    03:00Ясно и безоблачно+13°C58 %605 мм1.6 м/с1 %
    06:00Практически безоблачно+13°C56 %606 мм1.4 м/с1 %
    09:00Ясно и безоблачно+17°C40 %609 мм1.2 м/с1 %
    12:00Практически безоблачно+24°C26 %611 мм0.7 м/с1 %
    15:00Практически безоблачно+28°C22 %609 мм2.3 м/с1 %
    18:00Ясно и безоблачно+26°C26 %608 мм2.5 м/с1 %
    21:00Ясно и безоблачно+19°C48 %607 мм0.8 м/с1 %
  • 26февраля
    Понедельник
    +15°
    +28°
    Ясно и безоблачно
    ВремяПогодаТемператураВлажностьДавлениеВетер, м/сВероятность осадков
    00:00Ясно и безоблачно+19°C53 %608 мм1.8 м/с1 %
    03:00Ясно и безоблачно+16°C51 %606 мм0.5 м/с1 %
    06:00Ясно и безоблачно+17°C49 %607 мм0.4 м/с1 %
    09:00Ясно и безоблачно+17°C43 %608 мм0.2 м/с1 %
    12:00Ясно и безоблачно+25°C30 %611 мм1.5 м/с1 %
    15:00Ясно и безоблачно+28°C20 %609 мм2.2 м/с1 %
    18:00Ясно и безоблачно+26°C22 %607 мм1.6 м/с2 %
    21:00Ясно и безоблачно+21°C28 %606 мм1.5 м/с2 %
Мы используем cookies
Соглашаюсь